Terminal Aerodrome Forecast
Issued by NWS Portland, OR

Home | Current Version | Previous Version | Text Only | Print | Product List | Glossary On
Versions: 1 2 3 4 5 6 7 8 9 10 11 12 13 14 15 16 17 18
000
FTUS46 KPQR 270542
TAFEUG
TAF
KEUG 270542Z 2706/2806 18007KT P6SM VCSH SCT025 BKN035 OVC060
     FM271000 18006KT P6SM SCT008 BKN015 OVC035
     FM271800 21010KT P6SM -SHRA BKN025 BKN040
     FM280000 25011KT P6SM -SHRA SCT025 BKN045=

USA.gov is the U.S. government's official web portal to all federal, state and local government web resources and services.